This is the latest recevied weather packets stored in our database for station/object DK6MR-13. If no packets are shown the sender has not sent any weather packets the latest 10 day(s).
| Time | Temp. | Humidity | Pressure | Rain* | Wind** | Luminosity | Snow |
|---|---|---|---|---|---|---|---|
| 1777850534 | 12.78° C | 75% | 1011.1 hPa | 0 mm | - | - | - |
| 1777849633 | 13.33° C | 73% | 1011.1 hPa | 0 mm | - | - | - |
| 1777848733 | 13.33° C | 72% | 1011.1 hPa | 0 mm | - | - | - |
| 1777847832 | 13.33° C | 73% | 1011.1 hPa | 0 mm | - | - | - |
| 1777846931 | 13.33° C | 72% | 1011.1 hPa | 0 mm | - | - | - |
| 1777846030 | 13.89° C | 71% | 1011.1 hPa | 0 mm | - | - | - |
| 1777845129 | 13.89° C | 71% | 1011.1 hPa | 0 mm | - | - | - |
| 1777844228 | 14.44° C | 68% | 1011.1 hPa | 0 mm | - | - | - |
| 1777843327 | 15° C | 66% | 1011.1 hPa | 0 mm | - | - | - |
| 1777842426 | 16.11° C | 65% | 1011.1 hPa | 0 mm | - | - | - |
| 1777841525 | 16.67° C | 64% | 1011.1 hPa | 0 mm | - | - | - |
| 1777840625 | 16.67° C | 63% | 1011.1 hPa | 0 mm | - | - | - |
| 1777839724 | 17.22° C | 62% | 1011.5 hPa | 0 mm | - | - | - |
| 1777838824 | 17.22° C | 61% | 1011.1 hPa | 0 mm | - | - | - |
| 1777837923 | 17.22° C | 61% | 1010.8 hPa | 0 mm | - | - | - |
| 1777837020 | 17.22° C | 60% | 1010.8 hPa | 0 mm | - | - | - |
| 1777836119 | 17.78° C | 60% | 1011.1 hPa | 0 mm | - | - | - |
| 1777835218 | 17.78° C | 60% | 1010.8 hPa | 0 mm | - | - | - |
| 1777834317 | 17.78° C | 61% | 1010.5 hPa | 0 mm | - | - | - |
| 1777833416 | 17.78° C | 61% | 1010.5 hPa | 0 mm | - | - | - |
| 1777832515 | 17.78° C | 61% | 1010.5 hPa | 0 mm | - | - | - |
| 1777831613 | 17.78° C | 61% | 1010.1 hPa | 0 mm | - | - | - |
| 1777830712 | 17.78° C | 61% | 1010.1 hPa | 0 mm | - | - | - |
| 1777829811 | 17.78° C | 61% | 1010.5 hPa | 0 mm | - | - | - |
| 1777828911 | 17.78° C | 63% | 1010.5 hPa | 0 mm | - | - | - |
* Rain latest hour (hover to see other rain measurements)
** Current wind speed in m/s (hover to see current wind gust speed)